createdAt,value
2022-09-03T00:04:06.929Z,16.20
2022-09-03T00:08:20.954Z,16.20
2022-09-03T00:12:28.274Z,16.10
2022-09-03T00:16:41.458Z,16.10
2022-09-03T00:21:08.744Z,16.10
2022-09-03T00:25:22.975Z,16.10
2022-09-03T00:29:35.720Z,16.20
2022-09-03T00:33:41.340Z,16.20
2022-09-03T00:37:44.691Z,16.20
2022-09-03T00:42:23.758Z,16.20
2022-09-03T00:46:37.791Z,16.30
2022-09-03T00:50:49.215Z,16.30
2022-09-03T00:55:18.294Z,16.30
2022-09-03T00:59:43.559Z,16.40
2022-09-03T01:04:14.129Z,16.40
2022-09-03T01:08:22.042Z,16.40
2022-09-03T01:12:48.733Z,16.40
2022-09-03T01:17:05.002Z,16.40
2022-09-03T01:21:37.098Z,16.40
2022-09-03T01:26:01.678Z,16.40
2022-09-03T01:30:10.895Z,16.50
2022-09-03T01:34:32.107Z,16.40
2022-09-03T01:38:57.093Z,16.40
2022-09-03T01:43:34.115Z,16.40
2022-09-03T01:48:11.111Z,16.40
2022-09-03T01:52:17.915Z,16.40
2022-09-03T01:56:28.950Z,16.40
2022-09-03T02:00:33.925Z,16.30
2022-09-03T02:04:36.712Z,16.30
2022-09-03T02:08:39.270Z,16.30
2022-09-03T02:12:44.526Z,16.30
2022-09-03T02:16:47.059Z,16.30
2022-09-03T02:20:50.127Z,16.20
2022-09-03T02:24:53.126Z,16.20
2022-09-03T02:28:56.937Z,16.10
2022-09-03T02:33:00.031Z,16.10
2022-09-03T02:37:13.737Z,16.10
2022-09-03T02:41:15.754Z,16.10
2022-09-03T02:45:39.020Z,16.00
2022-09-03T02:49:41.053Z,16.10
2022-09-03T02:53:43.729Z,16.00
2022-09-03T02:57:47.007Z,16.00
2022-09-03T03:01:49.113Z,16.00
2022-09-03T03:05:55.522Z,16.00
2022-09-03T03:09:57.523Z,16.00
2022-09-03T03:13:59.406Z,16.00
2022-09-03T03:18:01.375Z,16.00
2022-09-03T03:22:03.241Z,16.00
2022-09-03T03:26:08.215Z,16.00
2022-09-03T03:30:11.211Z,16.00
2022-09-03T03:34:13.168Z,16.00
2022-09-03T03:38:15.996Z,16.00
2022-09-03T03:42:17.937Z,16.00
2022-09-03T03:46:19.950Z,16.00
2022-09-03T03:50:22.074Z,16.00
2022-09-03T03:54:24.114Z,16.00
2022-09-03T03:58:26.913Z,16.00
2022-09-03T04:02:29.029Z,16.10
2022-09-03T04:06:31.013Z,16.00
2022-09-03T04:10:32.953Z,16.10
2022-09-03T04:14:39.023Z,16.00
2022-09-03T04:18:41.563Z,16.10
2022-09-03T04:22:43.538Z,16.10
2022-09-03T04:26:45.600Z,17.30
2022-09-03T04:30:49.148Z,16.10
2022-09-03T04:34:51.326Z,16.20
2022-09-03T04:38:54.872Z,16.10
2022-09-03T04:42:59.221Z,16.10
2022-09-03T04:47:01.142Z,16.10
2022-09-03T04:51:07.794Z,16.10
2022-09-03T04:55:11.063Z,16.10
2022-09-03T04:59:13.730Z,16.20
2022-09-03T05:03:15.859Z,16.20
2022-09-03T05:07:17.823Z,16.20
2022-09-03T05:11:23.719Z,16.20
2022-09-03T05:15:25.771Z,16.20
2022-09-03T05:19:27.647Z,16.30
2022-09-03T05:23:35.521Z,16.30
2022-09-03T05:27:39.514Z,16.30
2022-09-03T05:31:41.507Z,16.30
2022-09-03T05:35:43.441Z,16.30
2022-09-03T05:39:45.510Z,16.30
2022-09-03T05:43:52.479Z,16.40
2022-09-03T05:47:54.382Z,16.30
2022-09-03T05:51:56.376Z,16.40
2022-09-03T05:56:04.231Z,16.40
2022-09-03T06:00:07.024Z,16.50
2022-09-03T06:04:15.875Z,16.50
2022-09-03T06:08:17.923Z,16.60
2022-09-03T06:12:19.759Z,16.60
2022-09-03T06:16:30.714Z,16.60
2022-09-03T06:20:37.170Z,16.70
2022-09-03T06:24:39.440Z,16.70
2022-09-03T06:28:43.525Z,16.80
2022-09-03T06:32:50.568Z,16.80
2022-09-03T06:36:54.549Z,16.90
2022-09-03T06:41:02.288Z,16.90
2022-09-03T06:45:06.982Z,17.00
2022-09-03T06:49:14.319Z,17.00
2022-09-03T06:53:16.752Z,17.10
2022-09-03T06:57:18.829Z,17.10
2022-09-03T07:01:23.470Z,17.20
2022-09-03T07:05:28.859Z,17.30
2022-09-03T07:09:32.370Z,17.30
2022-09-03T07:13:34.549Z,17.40
2022-09-03T07:17:37.133Z,17.50
2022-09-03T07:21:45.249Z,17.60
2022-09-03T07:25:59.686Z,17.80
2022-09-03T07:30:03.099Z,17.90
2022-09-03T07:34:10.058Z,18.20
2022-09-03T07:38:13.222Z,18.40
2022-09-03T07:42:15.211Z,18.50
2022-09-03T07:46:23.304Z,18.60
2022-09-03T07:50:25.600Z,18.70
2022-09-03T07:54:27.783Z,18.80
2022-09-03T07:58:30.873Z,18.90
2022-09-03T08:02:33.702Z,19.00
2022-09-03T08:06:35.785Z,19.20
2022-09-03T08:10:38.632Z,19.30
2022-09-03T08:14:40.612Z,19.50
2022-09-03T08:18:42.582Z,19.60
2022-09-03T08:22:44.572Z,19.70
2022-09-03T08:26:51.718Z,19.80
2022-09-03T08:30:55.532Z,20.00
2022-09-03T08:34:57.480Z,20.10
2022-09-03T08:39:03.983Z,20.20
2022-09-03T08:43:18.940Z,20.30
2022-09-03T08:47:33.018Z,20.40
2022-09-03T08:51:38.002Z,20.60
2022-09-03T08:55:50.725Z,20.70
2022-09-03T08:59:56.285Z,20.80
2022-09-03T09:04:35.066Z,20.90
2022-09-03T09:09:11.226Z,21.20
2022-09-03T09:13:40.357Z,21.40
2022-09-03T09:17:51.338Z,21.60
2022-09-03T09:22:00.499Z,21.80
2022-09-03T09:26:10.466Z,22.00
2022-09-03T09:30:15.703Z,22.00
2022-09-03T09:34:17.683Z,21.80
2022-09-03T09:38:31.001Z,21.80
2022-09-03T09:42:33.023Z,21.70
2022-09-03T09:46:41.151Z,21.60
2022-09-03T09:50:43.657Z,21.60
2022-09-03T09:54:46.365Z,21.80
2022-09-03T09:58:49.197Z,21.90
2022-09-03T10:02:56.570Z,21.70
2022-09-03T10:07:04.463Z,21.80
2022-09-03T10:11:07.457Z,21.90
2022-09-03T10:15:16.861Z,22.10
2022-09-03T10:19:29.016Z,22.10
2022-09-03T10:23:36.023Z,22.10
2022-09-03T10:27:41.017Z,22.00
2022-09-03T10:32:02.270Z,22.20
2022-09-03T10:36:26.930Z,22.20
2022-09-03T10:41:05.827Z,22.00
2022-09-03T10:45:29.098Z,21.90
2022-09-03T10:49:50.593Z,21.70
2022-09-03T10:54:24.350Z,21.60
2022-09-03T10:58:39.215Z,21.80
2022-09-03T11:02:57.969Z,21.90
2022-09-03T11:07:05.843Z,22.10
2022-09-03T11:11:27.831Z,22.20
2022-09-03T11:15:55.916Z,22.20
2022-09-03T11:20:14.501Z,22.40
2022-09-03T11:24:40.078Z,22.40
2022-09-03T11:29:04.182Z,22.30
2022-09-03T11:33:10.063Z,22.40
2022-09-03T11:37:18.808Z,22.30
2022-09-03T11:41:26.331Z,22.00
2022-09-03T11:45:28.863Z,21.90
2022-09-03T11:49:33.509Z,21.70
2022-09-03T11:53:36.715Z,21.90
2022-09-03T11:57:43.814Z,22.10
2022-09-03T12:01:52.987Z,21.90
2022-09-03T12:06:05.873Z,22.00
2022-09-03T12:10:19.100Z,21.90
2022-09-03T12:14:42.791Z,21.80
2022-09-03T12:18:45.752Z,21.90
2022-09-03T12:22:47.779Z,22.00
2022-09-03T12:26:49.862Z,22.10
2022-09-03T12:30:53.952Z,22.20
2022-09-03T12:34:56.089Z,22.20
